Zim Rio Grande — 9HNV9 — position and weather

sailwx.info

Track history (hours):
 
Tides and Currents Weather Stations Pressure Air Temp Water Temp Dewpoint Dewpoint Depression Visibility Wind Speed Wind Dir Waves Ship Positions

Zim Rio Grande

Last reported at 2016-Apr-29 01:16 UTC. Time now 2016-May-03 01:06 UTC.
Position N 01°13' E 103°30'.

Length 260 m; draft 12.3 m.

Type: Ship (hazmat cat A). MMSI: 249253000.

Date/timePositionNaut miles runAvg speedWind from/ knotsBaromVisibWave heightAir tempDewpointWater temp
2016-Apr-29 01:16N 01°13' E 103°30'1217.1
2016-Apr-29 00:33N 01°09' E 103°42'1312.8
2016-Apr-28 23:33N 01°13' E 103°54'1615.5
2016-Apr-28 22:33N 01°16' E 104°09'  
2016-Apr-26 02:19N 22°16' E 114°06'6 0.3
2016-Apr-25 08:03N 22°21' E 114°03'510.4
2016-Apr-25 07:34N 22°17' E 114°06'12 9.4
2016-Apr-25 06:16N 22°08' E 114°15'7 9.6
2016-Apr-25 05:32N 22°08' E 114°22'62818.5
2016-Apr-23 19:33N 29°42' E 122°24'1212.3
2016-Apr-23 18:33N 29°50' E 122°13'1212.2
2016-Apr-23 17:34N 29°56' E 122°01'9 2.0
2016-Apr-23 13:11N 29°57' E 121°50'0 0.0
2016-Apr-23 11:05N 29°57' E 121°50'0 0.0
2016-Apr-23 09:23N 29°57' E 121°50'0 0.0
2016-Apr-23 04:29N 29°57' E 121°50'0 0.0
2016-Apr-23 02:06N 29°57' E 121°50'1 0.9
2016-Apr-23 01:33N 29°57' E 121°50'9 8.7
2016-Apr-23 00:29N 29°56' E 122°01'1212.5
2016-Apr-22 23:32N 29°50' E 122°13'10 9.8
2016-Apr-22 22:33N 29°44' E 122°21'8 7.6
2016-Apr-22 21:33N 29°44' E 122°30'5 0.5
2016-Apr-22 11:19N 29°46' E 122°35'0 0.0
2016-Apr-21 17:33N 29°47' E 122°35'1110.4
2016-Apr-21 16:31N 29°47' E 122°48'10710.7
2016-Apr-21 06:30N 31°19' E 121°44'8 5.9
2016-Apr-21 05:14N 31°22' E 121°36'0 0.0
2016-Apr-21 03:29N 31°22' E 121°36'0 0.0
2016-Apr-21 02:29N 31°22' E 121°36'0 0.0
2016-Apr-21 01:23N 31°22' E 121°36'0 0.0
2016-Apr-21 00:29N 31°22' E 121°36'0 0.0
2016-Apr-20 23:29N 31°22' E 121°36'0 0.0
2016-Apr-20 22:23N 31°22' E 121°36'0 0.0
2016-Apr-20 20:29N 31°22' E 121°36'0 0.0
2016-Apr-20 19:23N 31°22' E 121°36'0 0.0
2016-Apr-20 17:17N 31°22' E 121°36'0 0.0
2016-Apr-20 16:29N 31°22' E 121°36'0 0.0
2016-Apr-20 15:29N 31°22' E 121°36'0 0.0
2016-Apr-20 14:23N 31°22' E 121°36'1 1.3
2016-Apr-20 13:33N 31°22' E 121°37'1111.2
2016-Apr-20 12:33N 31°17' E 121°48'  
Track history (hours):
 
Tides and Currents Weather Stations Pressure Air Temp Water Temp Dewpoint Dewpoint Depression Visibility Wind Speed Wind Dir Waves Ship Positions

Zim Rio Grande

Last reported at 2016-Apr-29 01:16 UTC. Time now 2016-May-03 01:06 UTC.
Position N 01°13' E 103°30'.

Length 260 m; draft 12.3 m.

Type: Ship (hazmat cat A). MMSI: 249253000.

Date/timePositionNaut miles runAvg speedWind from/ knotsBaromVisibWave heightAir tempDewpointWater temp
2016-Apr-29 01:16N 01°13' E 103°30'1217.1
2016-Apr-29 00:33N 01°09' E 103°42'1312.8
2016-Apr-28 23:33N 01°13' E 103°54'1615.5
2016-Apr-28 22:33N 01°16' E 104°09'  
2016-Apr-26 02:19N 22°16' E 114°06'6 0.3
2016-Apr-25 08:03N 22°21' E 114°03'510.4
2016-Apr-25 07:34N 22°17' E 114°06'12 9.4
2016-Apr-25 06:16N 22°08' E 114°15'7 9.6
2016-Apr-25 05:32N 22°08' E 114°22'62818.5
2016-Apr-23 19:33N 29°42' E 122°24'1212.3
2016-Apr-23 18:33N 29°50' E 122°13'1212.2
2016-Apr-23 17:34N 29°56' E 122°01'9 2.0
2016-Apr-23 13:11N 29°57' E 121°50'0 0.0
2016-Apr-23 11:05N 29°57' E 121°50'0 0.0
2016-Apr-23 09:23N 29°57' E 121°50'0 0.0
2016-Apr-23 04:29N 29°57' E 121°50'0 0.0
2016-Apr-23 02:06N 29°57' E 121°50'1 0.9
2016-Apr-23 01:33N 29°57' E 121°50'9 8.7
2016-Apr-23 00:29N 29°56' E 122°01'1212.5
2016-Apr-22 23:32N 29°50' E 122°13'10 9.8
2016-Apr-22 22:33N 29°44' E 122°21'8 7.6
2016-Apr-22 21:33N 29°44' E 122°30'5 0.5
2016-Apr-22 11:19N 29°46' E 122°35'0 0.0
2016-Apr-21 17:33N 29°47' E 122°35'1110.4
2016-Apr-21 16:31N 29°47' E 122°48'10710.7
2016-Apr-21 06:30N 31°19' E 121°44'8 5.9
2016-Apr-21 05:14N 31°22' E 121°36'0 0.0
2016-Apr-21 03:29N 31°22' E 121°36'0 0.0
2016-Apr-21 02:29N 31°22' E 121°36'0 0.0
2016-Apr-21 01:23N 31°22' E 121°36'0 0.0
2016-Apr-21 00:29N 31°22' E 121°36'0 0.0
2016-Apr-20 23:29N 31°22' E 121°36'0 0.0
2016-Apr-20 22:23N 31°22' E 121°36'0 0.0
2016-Apr-20 20:29N 31°22' E 121°36'0 0.0
2016-Apr-20 19:23N 31°22' E 121°36'0 0.0
2016-Apr-20 17:17N 31°22' E 121°36'0 0.0
2016-Apr-20 16:29N 31°22' E 121°36'0 0.0
2016-Apr-20 15:29N 31°22' E 121°36'0 0.0
2016-Apr-20 14:23N 31°22' E 121°36'1 1.3
2016-Apr-20 13:33N 31°22' E 121°37'1111.2
2016-Apr-20 12:33N 31°17' E 121°48'  

Dump ship's entire track history